Aérodrome :
LOGIN :

S'inscrire | Disclaimer

   EN    FR    IT 

 










Légende :    VFR   VFR Marginal   IFR   IFR Intensif   IFR Très Intensif
Visi : 
Plafond : 
>= 8 km
>= 3000ft
5 à 8 km
1000 à 3000 ft
1500m à 5 km
500 à 1000 ft
800 à 1500m
200 à 500 ft
< 800m
< 200 ft
Symboles :   Orages  Brouillard  Fortes neiges  Fortes précipitations  Vent > 20 kt
SIGMETs :   Divers  Orages  Givrage  Turbulence  Onde Orograph.  Cendres Volcan.






- Altitude de l'aérodrome : 183 ft


LIBA - Amendola Foggia

DERNIER METAR :
  • 151355Z 08015KT CAVOK 37/16 Q1011 RMK SKC VIS MIN 9999 WIND THR11 09014KT WIND THR29 /////KT BLU

METARs EXPIRÉS :
  • 151255Z 09015KT CAVOK 38/16 Q1011 RMK SKC VIS MIN 9999 WIND THR11 08014KT WIND THR29 /////KT BLU
  • 151155Z 09013KT CAVOK 38/15 Q1011 RMK SKC VIS MIN 9999 WIND THR11 10014KT WIND THR29 /////KT BLU
  • 151055Z 09010KT CAVOK 38/14 Q1012 RMK SKC VIS MIN 9999 WIND THR11 12008KT WIND THR29 /////KT BLU

TAF TAF LIBA
Valide du 15 à 15h jusqu'au 16 à 00h UTC


151400Z 1515/1524 09015KT CAVOK
BECMG 1518/1520 12006KT
BECMG 1522/1523 VRB03KT



MET'MAP, la Météo Aéronautique d'un coup d'oeil ! - Copyright ORBIFLY Décembre 2007 - Disclaimer

ORBIFLY MET'MAP TEAM :

Programmation & Développement : Alexandra Zaïnal
Sur une idée originale de : Baudouin d'Aumeries
Soutien technique & logistique : Manuel Goepfert
Assistance : Marc-Olivier Méhu




SOURCES & CREDITS :

   NOAA